Time;durP1;ratioP1;P1;durP2;ratioP2;P2;SDS_P1;SDS_P2;PMS_P1;PMS_P2;Temp;Humidity;BMP_temperature;BMP_pressure;BME280_temperature;BME280_humidity;BME280_pressure;Samples;Min_cycle;Max_cycle;Signal;HPM_P1;HPM_P2
2023/05/20 00:00:12;;;;;;;7.70;1.48;;;12.70;99.90;;;;;;5091053;28;20028;-70
2023/05/20 00:02:38;;;;;;;4.43;1.85;;;12.70;99.90;;;;;;5091155;28;20036;-71
2023/05/20 00:05:03;;;;;;;4.10;1.85;;;12.70;99.90;;;;;;5098709;28;20059;-71
2023/05/20 00:07:29;;;;;;;5.88;1.50;;;12.70;99.90;;;;;;5090866;28;20522;-70
2023/05/20 00:09:58;;;;;;;5.05;1.20;;;12.70;99.90;;;;;;5095479;28;20028;-71
2023/05/20 00:12:24;;;;;;;6.15;1.90;;;12.60;99.90;;;;;;5090587;28;20523;-74
2023/05/20 00:14:49;;;;;;;9.70;1.45;;;12.60;99.90;;;;;;5093319;28;20028;-70
2023/05/20 00:17:15;;;;;;;4.97;1.00;;;12.60;99.90;;;;;;5096614;28;20052;-71
2023/05/20 00:19:41;;;;;;;6.40;1.90;;;12.50;99.90;;;;;;5090890;28;20036;-70
2023/05/20 00:22:07;;;;;;;4.07;1.42;;;12.50;99.90;;;;;;5095547;28;20065;-71
2023/05/20 00:24:32;;;;;;;9.00;1.80;;;12.50;99.90;;;;;;5095737;28;20047;-71
2023/05/20 00:27:01;;;;;;;4.55;1.40;;;12.40;99.90;;;;;;5095014;28;20071;-69
2023/05/20 00:29:33;;;;;;;5.40;1.27;;;12.40;99.90;;;;;;5096401;28;20376;-71
2023/05/20 00:32:04;;;;;;;6.25;1.58;;;12.40;99.90;;;;;;5100633;28;20070;-70
2023/05/20 00:34:30;;;;;;;7.55;2.05;;;12.40;99.90;;;;;;5097200;28;20050;-72
2023/05/20 00:36:59;;;;;;;4.18;1.38;;;12.40;99.90;;;;;;5099409;28;20032;-73
2023/05/20 00:39:24;;;;;;;4.22;1.85;;;12.40;99.90;;;;;;5096502;28;20044;-76
2023/05/20 00:41:59;;;;;;;4.78;1.60;;;12.40;99.90;;;;;;5099076;28;20082;-70
2023/05/20 00:44:28;;;;;;;5.63;2.00;;;12.40;99.90;;;;;;5096486;28;20039;-70
2023/05/20 00:46:56;;;;;;;6.07;1.88;;;12.50;99.90;;;;;;5099666;28;20132;-71
2023/05/20 00:49:25;;;;;;;8.13;2.35;;;12.50;99.90;;;;;;5092618;28;20085;-72
2023/05/20 00:51:51;;;;;;;7.20;1.92;;;12.50;99.90;;;;;;5098309;28;20604;-71
2023/05/20 00:54:16;;;;;;;8.65;1.45;;;12.50;99.90;;;;;;5098361;28;20038;-70
2023/05/20 00:56:42;;;;;;;5.72;1.48;;;12.40;99.90;;;;;;5087883;28;20043;-72
2023/05/20 00:59:11;;;;;;;4.60;1.40;;;12.40;99.90;;;;;;5090225;28;20110;-71
2023/05/20 01:01:40;;;;;;;4.95;2.00;;;12.40;99.90;;;;;;5091270;28;20536;-70
2023/05/20 01:04:06;;;;;;;4.03;1.42;;;12.30;99.90;;;;;;5090079;28;20402;-71
2023/05/20 01:06:36;;;;;;;4.75;1.70;;;12.30;99.90;;;;;;5096678;28;20111;-71
2023/05/20 01:09:02;;;;;;;5.63;1.73;;;12.20;99.90;;;;;;5099341;28;20468;-71
2023/05/20 01:11:37;;;;;;;5.28;1.75;;;12.20;99.90;;;;;;5096880;28;20065;-70
2023/05/20 01:14:07;;;;;;;5.85;1.50;;;12.20;99.90;;;;;;5086101;28;20036;-70
2023/05/20 01:16:34;;;;;;;5.10;1.92;;;12.10;99.90;;;;;;5095061;28;20102;-70
2023/05/20 01:19:13;;;;;;;9.73;2.50;;;12.00;99.90;;;;;;5090392;28;20024;-69
2023/05/20 01:21:40;;;;;;;8.20;1.90;;;12.10;99.90;;;;;;5096617;28;20063;-70
2023/05/20 01:24:06;;;;;;;10.80;1.63;;;12.00;99.90;;;;;;5100851;28;20053;-70
2023/05/20 01:26:47;;;;;;;5.45;1.90;;;12.00;99.90;;;;;;5096385;28;20032;-70
2023/05/20 01:29:18;;;;;;;5.35;1.85;;;12.00;99.90;;;;;;5090089;28;20040;-70
2023/05/20 01:31:46;;;;;;;14.82;2.22;;;12.00;99.90;;;;;;5093563;28;20039;-70
2023/05/20 01:34:15;;;;;;;8.05;2.10;;;12.00;99.90;;;;;;5093848;28;20040;-70
2023/05/20 01:36:44;;;;;;;8.90;2.15;;;12.00;99.90;;;;;;5089006;28;20495;-71
2023/05/20 01:39:13;;;;;;;15.35;3.17;;;12.00;99.90;;;;;;5090330;28;20024;-69
2023/05/20 01:41:42;;;;;;;8.15;2.33;;;11.90;99.90;;;;;;5094791;28;20380;-71
2023/05/20 01:44:08;;;;;;;3.03;1.67;;;11.90;99.90;;;;;;5088911;28;20392;-70
2023/05/20 01:46:37;;;;;;;6.70;1.90;;;11.90;99.90;;;;;;5089814;28;20042;-69
2023/05/20 01:49:02;;;;;;;8.40;1.70;;;11.90;99.90;;;;;;5086309;28;20329;-71
2023/05/20 01:51:34;;;;;;;7.10;2.15;;;11.80;99.90;;;;;;5088731;28;20475;-70
2023/05/20 01:54:00;;;;;;;4.78;1.60;;;11.80;99.90;;;;;;5088347;28;20100;-71
2023/05/20 01:56:26;;;;;;;5.13;1.67;;;11.80;99.90;;;;;;5089048;28;20036;-70
2023/05/20 01:58:52;;;;;;;7.65;1.92;;;11.80;99.90;;;;;;5096818;28;20035;-70
2023/05/20 02:01:18;;;;;;;5.25;2.03;;;11.80;99.90;;;;;;5095602;28;20552;-70
2023/05/20 02:03:46;;;;;;;9.13;2.10;;;11.80;99.90;;;;;;5093091;28;20062;-71
2023/05/20 02:06:12;;;;;;;9.05;2.15;;;11.70;99.90;;;;;;5095877;28;20096;-71
2023/05/20 02:08:37;;;;;;;10.07;2.08;;;11.70;99.90;;;;;;5094353;28;20500;-69
2023/05/20 02:11:03;;;;;;;10.05;1.70;;;11.70;99.90;;;;;;5088785;28;20091;-72
2023/05/20 02:13:29;;;;;;;9.57;1.95;;;11.70;99.90;;;;;;5093197;28;20051;-70
2023/05/20 02:15:57;;;;;;;7.03;1.67;;;11.70;99.90;;;;;;5090892;28;20043;-71
2023/05/20 02:18:25;;;;;;;6.55;1.98;;;11.60;99.90;;;;;;5092137;28;20031;-70
2023/05/20 02:20:51;;;;;;;5.55;2.00;;;11.60;99.90;;;;;;5089563;28;20082;-71
2023/05/20 02:23:17;;;;;;;8.88;2.05;;;11.60;99.90;;;;;;5092899;28;20809;-69
2023/05/20 02:25:43;;;;;;;4.18;1.80;;;11.60;99.90;;;;;;5088984;28;20047;-70
2023/05/20 02:28:09;;;;;;;4.65;1.52;;;11.60;99.90;;;;;;5098196;28;20036;-70
2023/05/20 02:30:36;;;;;;;9.98;2.03;;;11.50;99.90;;;;;;5095152;28;20032;-70
2023/05/20 02:33:02;;;;;;;6.65;2.20;;;11.50;99.90;;;;;;5097492;28;20035;-71
2023/05/20 02:35:27;;;;;;;10.93;2.10;;;11.50;99.90;;;;;;5087964;28;20038;-70
2023/05/20 02:37:53;;;;;;;2.85;1.73;;;11.50;99.90;;;;;;5094996;28;20035;-70
2023/05/20 02:40:19;;;;;;;4.72;1.90;;;11.50;99.90;;;;;;5096512;28;20076;-70
2023/05/20 02:42:45;;;;;;;5.75;1.42;;;11.40;99.90;;;;;;5094735;28;20066;-71
2023/05/20 02:45:14;;;;;;;5.63;1.80;;;11.50;99.90;;;;;;5091732;28;20031;-70
2023/05/20 02:47:39;;;;;;;7.25;2.25;;;11.50;99.90;;;;;;5090804;28;20090;-73
2023/05/20 02:50:06;;;;;;;3.92;1.70;;;11.50;99.90;;;;;;5096298;28;20035;-70
2023/05/20 02:52:32;;;;;;;11.57;2.33;;;11.50;99.90;;;;;;5094005;28;20044;-69
2023/05/20 02:54:58;;;;;;;5.38;1.80;;;11.40;99.90;;;;;;5094819;28;20028;-70
2023/05/20 02:57:26;;;;;;;4.18;1.60;;;11.40;99.90;;;;;;5094464;28;20085;-71
2023/05/20 02:59:51;;;;;;;7.13;1.73;;;11.40;99.90;;;;;;5094646;28;20070;-70
2023/05/20 03:02:17;;;;;;;11.10;2.67;;;11.40;99.90;;;;;;5089304;28;20452;-70
2023/05/20 03:04:43;;;;;;;9.75;1.67;;;11.40;99.90;;;;;;5087893;28;20118;-70
2023/05/20 03:07:08;;;;;;;6.88;2.28;;;11.40;99.90;;;;;;5091078;28;20066;-70
2023/05/20 03:09:37;;;;;;;4.85;1.50;;;11.40;99.90;;;;;;5089111;28;20154;-71
2023/05/20 03:12:03;;;;;;;3.90;1.80;;;11.30;99.90;;;;;;5089148;28;20036;-70
2023/05/20 03:14:28;;;;;;;9.63;2.22;;;11.30;99.90;;;;;;5093843;28;20040;-71
2023/05/20 03:17:00;;;;;;;4.38;1.63;;;11.20;99.90;;;;;;5097806;28;20027;-70
2023/05/20 03:19:25;;;;;;;5.03;2.30;;;11.20;99.90;;;;;;5085740;28;20031;-71
2023/05/20 03:21:54;;;;;;;5.20;1.50;;;11.20;99.90;;;;;;5089764;28;20399;-70
2023/05/20 03:24:22;;;;;;;9.18;2.10;;;11.20;99.90;;;;;;5092575;28;20040;-70
2023/05/20 03:26:48;;;;;;;7.60;2.67;;;11.20;99.90;;;;;;5092052;28;20032;-71
2023/05/20 03:29:13;;;;;;;5.93;2.03;;;11.10;99.90;;;;;;5093907;28;20043;-72
2023/05/20 03:31:39;;;;;;;8.70;1.80;;;11.10;99.90;;;;;;5092611;28;20036;-71
2023/05/20 03:34:05;;;;;;;6.10;2.05;;;11.10;99.90;;;;;;5091292;28;20032;-71
2023/05/20 03:36:30;;;;;;;7.20;2.03;;;11.10;99.90;;;;;;5095137;28;20031;-71
2023/05/20 03:39:00;;;;;;;8.60;2.00;;;11.10;99.90;;;;;;5092084;28;20120;-71
2023/05/20 03:41:26;;;;;;;11.60;2.43;;;11.20;99.90;;;;;;5086505;28;20036;-72
2023/05/20 03:43:52;;;;;;;6.15;2.20;;;11.20;99.90;;;;;;5089899;28;20036;-71
2023/05/20 03:46:23;;;;;;;6.35;1.85;;;11.20;99.90;;;;;;5095532;28;20469;-71
2023/05/20 03:48:49;;;;;;;3.95;1.80;;;11.20;99.90;;;;;;5091287;28;20044;-71
2023/05/20 03:51:14;;;;;;;8.15;2.10;;;11.30;99.90;;;;;;5096178;28;20046;-71
2023/05/20 03:53:40;;;;;;;9.57;1.92;;;11.30;99.90;;;;;;5092247;28;20047;-71
2023/05/20 03:56:05;;;;;;;7.82;2.13;;;11.20;99.90;;;;;;5091725;28;20490;-70
2023/05/20 03:58:31;;;;;;;8.85;2.70;;;11.30;99.90;;;;;;5092702;28;20032;-71
2023/05/20 04:00:57;;;;;;;4.47;1.90;;;11.30;99.90;;;;;;5091389;28;20024;-70
2023/05/20 04:03:23;;;;;;;4.72;1.88;;;11.20;99.90;;;;;;5089736;28;20028;-70
2023/05/20 04:05:49;;;;;;;4.60;1.90;;;11.20;99.90;;;;;;5092224;28;20085;-73
2023/05/20 04:08:21;;;;;;;6.78;2.10;;;11.20;99.90;;;;;;5091497;28;20110;-71
2023/05/20 04:10:46;;;;;;;6.28;1.90;;;11.20;99.90;;;;;;5089599;28;20028;-70
2023/05/20 04:13:13;;;;;;;7.35;2.22;;;11.20;99.90;;;;;;5092529;28;20046;-70
2023/05/20 04:15:38;;;;;;;9.07;2.03;;;11.30;99.90;;;;;;5097078;28;20153;-71
2023/05/20 04:18:05;;;;;;;6.03;2.08;;;11.30;99.90;;;;;;5093445;28;20158;-71
2023/05/20 04:20:31;;;;;;;4.63;1.60;;;11.30;99.90;;;;;;5093609;28;20032;-70
2023/05/20 04:22:56;;;;;;;4.45;1.98;;;11.30;99.90;;;;;;5093280;28;20377;-71
2023/05/20 04:25:22;;;;;;;11.57;2.35;;;11.30;99.90;;;;;;5097625;28;20043;-72
2023/05/20 04:27:53;;;;;;;6.80;2.05;;;11.30;99.90;;;;;;5091607;28;20028;-70
2023/05/20 04:30:20;;;;;;;8.38;1.98;;;11.30;99.90;;;;;;5100692;28;20032;-71
2023/05/20 04:32:47;;;;;;;9.20;2.97;;;11.30;99.90;;;;;;5087804;28;20171;-70
2023/05/20 04:35:13;;;;;;;8.15;1.88;;;11.30;99.90;;;;;;5095736;28;20063;-70
2023/05/20 04:37:40;;;;;;;10.43;2.33;;;11.30;99.90;;;;;;5093048;28;20032;-70
2023/05/20 04:40:11;;;;;;;8.95;2.05;;;11.40;99.90;;;;;;5093530;28;20056;-71
2023/05/20 04:42:43;;;;;;;8.63;2.38;;;11.50;99.90;;;;;;5095019;28;20089;-71
2023/05/20 04:45:09;;;;;;;9.52;2.38;;;11.50;99.90;;;;;;5093363;28;20510;-71
2023/05/20 04:47:48;;;;;;;5.53;1.92;;;11.60;99.90;;;;;;5093509;28;20515;-70
2023/05/20 04:50:13;;;;;;;8.93;2.17;;;11.60;99.90;;;;;;5091066;28;20069;-71
2023/05/20 04:52:40;;;;;;;6.63;1.77;;;11.70;99.90;;;;;;5092308;28;20710;-71
2023/05/20 04:55:15;;;;;;;8.95;1.95;;;11.70;99.90;;;;;;5090348;28;20028;-71
2023/05/20 04:57:41;;;;;;;5.60;2.10;;;11.80;99.90;;;;;;5092054;28;20059;-71
2023/05/20 05:00:13;;;;;;;7.72;1.92;;;11.80;99.90;;;;;;5093393;28;20052;-72
2023/05/20 05:02:39;;;;;;;7.35;2.03;;;12.00;99.90;;;;;;5089214;28;20959;-70
2023/05/20 05:05:05;;;;;;;9.35;1.65;;;12.00;99.90;;;;;;5084062;28;20111;-70
2023/05/20 05:07:31;;;;;;;5.40;1.85;;;12.00;99.90;;;;;;5082835;28;20051;-71
2023/05/20 05:09:56;;;;;;;5.60;1.65;;;12.10;99.90;;;;;;5083909;28;20036;-71
2023/05/20 05:12:22;;;;;;;9.18;1.88;;;12.10;99.90;;;;;;5083624;28;20101;-73
2023/05/20 05:14:47;;;;;;;6.03;2.08;;;12.20;99.90;;;;;;5087119;28;20146;-71
2023/05/20 05:17:13;;;;;;;6.13;2.30;;;12.30;99.90;;;;;;5087984;28;20036;-68
2023/05/20 05:19:44;;;;;;;6.30;1.88;;;12.50;99.90;;;;;;5087244;28;20062;-72
2023/05/20 05:22:15;;;;;;;8.60;2.38;;;12.60;99.90;;;;;;5088659;28;20545;-71
2023/05/20 05:24:47;;;;;;;10.65;2.38;;;12.60;99.90;;;;;;5087370;28;20032;-70
2023/05/20 05:27:12;;;;;;;5.35;1.92;;;12.60;99.90;;;;;;5089352;28;20148;-72
2023/05/20 05:29:38;;;;;;;8.50;2.03;;;12.60;99.90;;;;;;5090776;28;20499;-69
2023/05/20 05:32:04;;;;;;;3.45;1.65;;;12.70;99.90;;;;;;5097574;28;20126;-70
2023/05/20 05:34:29;;;;;;;4.28;1.83;;;12.80;99.90;;;;;;5092139;28;20078;-69
2023/05/20 05:36:56;;;;;;;2.78;1.40;;;12.90;99.90;;;;;;5089489;27;20089;-70
2023/05/20 05:39:21;;;;;;;5.00;1.55;;;13.10;99.90;;;;;;5098360;28;20054;-69
2023/05/20 05:41:47;;;;;;;8.93;1.98;;;13.30;99.90;;;;;;5094664;28;20488;-71
2023/05/20 05:44:12;;;;;;;9.40;1.67;;;13.70;99.90;;;;;;5091375;28;20033;-69
2023/05/20 05:46:41;;;;;;;6.80;1.80;;;14.00;99.90;;;;;;5087574;28;20071;-70
2023/05/20 05:49:06;;;;;;;4.22;1.35;;;14.50;99.90;;;;;;5095987;28;20046;-70
2023/05/20 05:51:32;;;;;;;4.43;1.13;;;14.80;99.90;;;;;;5094774;28;20035;-71
2023/05/20 05:54:02;;;;;;;4.93;1.38;;;15.10;99.90;;;;;;5093672;28;20056;-69
2023/05/20 05:56:27;;;;;;;2.33;1.15;;;15.60;99.90;;;;;;5090357;28;20495;-69
2023/05/20 05:58:56;;;;;;;5.82;1.60;;;16.20;99.90;;;;;;5095556;28;20093;-70
2023/05/20 06:01:22;;;;;;;5.93;1.25;;;16.70;99.90;;;;;;5092333;28;20028;-70
2023/05/20 06:03:48;;;;;;;6.70;1.33;;;17.20;99.90;;;;;;5087157;28;20035;-70
2023/05/20 06:06:13;;;;;;;3.72;1.08;;;17.80;99.90;;;;;;5096341;27;20724;-70
2023/05/20 06:08:39;;;;;;;8.68;1.73;;;18.70;99.90;;;;;;5088460;28;20036;-69
2023/05/20 06:11:05;;;;;;;3.05;0.80;;;19.50;98.60;;;;;;5091201;28;20085;-70
2023/05/20 06:13:30;;;;;;;2.17;1.10;;;20.50;97.60;;;;;;5089977;27;20040;-72
2023/05/20 06:15:56;;;;;;;3.40;1.40;;;21.10;96.80;;;;;;5091016;28;20027;-70
2023/05/20 06:18:22;;;;;;;3.42;1.70;;;22.20;95.30;;;;;;5098473;28;20028;-70
2023/05/20 06:20:55;;;;;;;4.22;1.50;;;22.80;94.40;;;;;;5093417;28;20064;-69
2023/05/20 06:23:24;;;;;;;4.03;2.15;;;23.20;92.30;;;;;;5086522;28;20024;-70
2023/05/20 06:26:00;;;;;;;4.40;1.52;;;23.70;93.30;;;;;;5090965;28;20743;-70
2023/05/20 06:28:29;;;;;;;3.63;1.45;;;24.50;92.10;;;;;;5092884;28;20100;-73
2023/05/20 06:30:55;;;;;;;4.88;1.50;;;25.10;91.00;;;;;;5094420;28;20032;-72
2023/05/20 06:33:25;;;;;;;4.15;1.73;;;25.20;90.30;;;;;;5089874;28;20488;-70
2023/05/20 06:35:55;;;;;;;5.28;1.40;;;25.60;88.80;;;;;;5088371;28;20047;-71
2023/05/20 06:38:21;;;;;;;5.90;1.65;;;26.00;88.80;;;;;;5092561;28;20499;-72
2023/05/20 06:40:50;;;;;;;9.02;1.98;;;26.00;87.50;;;;;;5092422;28;20088;-72
2023/05/20 06:43:16;;;;;;;5.28;1.63;;;25.90;85.90;;;;;;5085710;28;20423;-72
2023/05/20 06:45:41;;;;;;;5.57;1.75;;;25.90;86.30;;;;;;5088665;28;25779;-71
2023/05/20 06:48:10;;;;;;;6.35;1.77;;;26.10;85.60;;;;;;5090453;28;20031;-71
2023/05/20 06:50:36;;;;;;;5.68;1.67;;;26.10;84.80;;;;;;5089866;28;20020;-71
2023/05/20 06:53:03;;;;;;;3.83;1.45;;;26.00;84.20;;;;;;5086724;28;20119;-71
2023/05/20 06:55:28;;;;;;;3.85;1.52;;;26.40;83.40;;;;;;5090725;27;20113;-72
2023/05/20 06:57:54;;;;;;;4.20;1.70;;;26.20;84.00;;;;;;5090330;28;20032;-72
2023/05/20 07:00:20;;;;;;;4.80;1.70;;;26.60;84.00;;;;;;5089393;28;20122;-71
2023/05/20 07:02:51;;;;;;;5.85;1.90;;;26.80;82.30;;;;;;5086739;28;20121;-72
2023/05/20 07:05:23;;;;;;;4.30;1.48;;;27.40;81.70;;;;;;5086834;27;20150;-72
2023/05/20 07:07:51;;;;;;;2.15;1.13;;;27.70;81.50;;;;;;5093617;28;20027;-71
2023/05/20 07:10:23;;;;;;;2.85;1.23;;;28.10;80.20;;;;;;5090325;28;20142;-71
2023/05/20 07:12:49;;;;;;;3.72;1.60;;;28.20;79.10;;;;;;5083571;28;20293;-71
2023/05/20 07:15:14;;;;;;;2.50;1.40;;;28.30;79.10;;;;;;5092260;28;20031;-71
2023/05/20 07:17:40;;;;;;;2.67;1.40;;;28.50;78.00;;;;;;5086998;28;20630;-70
2023/05/20 07:20:07;;;;;;;4.47;1.63;;;28.80;77.70;;;;;;5091587;28;20043;-70
2023/05/20 07:22:32;;;;;;;6.25;1.70;;;28.90;77.10;;;;;;5092081;28;20492;-71
2023/05/20 07:24:59;;;;;;;4.50;1.75;;;28.80;77.70;;;;;;5088150;28;20043;-71
2023/05/20 07:27:25;;;;;;;3.47;1.65;;;29.00;77.10;;;;;;5088606;28;20047;-71
2023/05/20 07:29:51;;;;;;;3.42;1.65;;;28.70;75.80;;;;;;5090625;28;20040;-71
2023/05/20 07:32:16;;;;;;;3.47;1.30;;;28.70;75.50;;;;;;5090089;28;20031;-71
2023/05/20 07:34:42;;;;;;;7.60;1.52;;;29.00;75.40;;;;;;5087384;28;20396;-72
2023/05/20 07:37:08;;;;;;;2.85;1.42;;;28.90;76.00;;;;;;5093063;27;20027;-72
2023/05/20 07:39:34;;;;;;;3.85;1.45;;;28.90;74.40;;;;;;5087982;28;20067;-71
2023/05/20 07:42:00;;;;;;;3.90;1.73;;;28.60;73.50;;;;;;5087045;28;20132;-71
2023/05/20 07:44:26;;;;;;;3.67;1.73;;;28.10;74.40;;;;;;5091708;28;20697;-72
2023/05/20 07:46:52;;;;;;;2.70;1.63;;;27.60;75.40;;;;;;5093829;28;20036;-72
2023/05/20 07:49:21;;;;;;;4.05;1.42;;;27.10;75.10;;;;;;5091046;28;20038;-69
2023/05/20 07:51:47;;;;;;;5.70;1.60;;;26.50;75.00;;;;;;5088831;28;20077;-70
2023/05/20 07:54:14;;;;;;;3.25;1.10;;;26.50;75.20;;;;;;5093505;28;20027;-70
2023/05/20 07:56:39;;;;;;;3.40;1.08;;;25.80;77.00;;;;;;5081275;28;20496;-70
2023/05/20 07:59:05;;;;;;;1.58;0.63;;;25.10;78.20;;;;;;5087428;28;20134;-70
2023/05/20 08:01:31;;;;;;;3.53;0.70;;;24.80;77.30;;;;;;5089556;28;20061;-70
2023/05/20 08:03:57;;;;;;;4.18;1.00;;;24.30;81.60;;;;;;5088732;28;20419;-70
2023/05/20 08:06:26;;;;;;;2.35;0.93;;;24.00;79.10;;;;;;5087663;28;20032;-69
2023/05/20 08:08:54;;;;;;;1.20;0.55;;;23.50;81.90;;;;;;5090560;28;20032;-69
2023/05/20 08:11:21;;;;;;;1.83;0.68;;;23.30;81.80;;;;;;5089284;28;20036;-69
2023/05/20 08:13:47;;;;;;;5.07;0.90;;;23.40;79.50;;;;;;5081973;28;20036;-69
2023/05/20 08:16:12;;;;;;;2.05;0.70;;;23.10;80.30;;;;;;5087848;28;20086;-70
2023/05/20 08:18:38;;;;;;;3.55;0.60;;;22.90;81.00;;;;;;5092661;28;20652;-69
2023/05/20 08:21:06;;;;;;;1.55;0.55;;;22.70;82.80;;;;;;5090982;28;20028;-70
2023/05/20 08:23:33;;;;;;;2.53;0.80;;;22.60;80.60;;;;;;5086318;28;20859;-69
2023/05/20 08:26:01;;;;;;;1.83;0.60;;;22.50;82.80;;;;;;5092342;28;20440;-71
2023/05/20 08:28:27;;;;;;;3.80;0.55;;;22.30;83.80;;;;;;5088088;28;20031;-70
2023/05/20 08:30:53;;;;;;;1.27;0.57;;;22.20;83.60;;;;;;5085281;28;20036;-71
2023/05/20 08:33:20;;;;;;;1.48;0.60;;;22.00;82.90;;;;;;5089055;28;20034;-70
2023/05/20 08:35:46;;;;;;;3.17;0.82;;;22.00;83.90;;;;;;5086629;28;20039;-72
2023/05/20 08:38:12;;;;;;;2.10;0.55;;;22.00;84.50;;;;;;5089550;28;20034;-70
2023/05/20 08:40:38;;;;;;;4.38;0.85;;;21.90;83.50;;;;;;5087198;28;20055;-68
2023/05/20 08:43:03;;;;;;;5.57;1.00;;;21.90;83.90;;;;;;5089826;28;20395;-68
2023/05/20 08:45:32;;;;;;;2.65;0.90;;;21.70;85.10;;;;;;5087926;28;20082;-70
2023/05/20 08:47:59;;;;;;;1.40;0.60;;;21.80;85.70;;;;;;5091023;28;20559;-70
2023/05/20 08:50:24;;;;;;;4.03;0.77;;;21.50;83.30;;;;;;5093704;28;20028;-70
2023/05/20 08:52:50;;;;;;;1.23;0.50;;;21.60;85.20;;;;;;5087018;28;20105;-70
2023/05/20 08:55:36;;;;;;;1.33;0.50;;;21.40;83.50;;;;;;5092104;28;20039;-70
2023/05/20 08:58:02;;;;;;;2.00;0.80;;;21.20;85.00;;;;;;5091341;28;20402;-70
2023/05/20 09:00:28;;;;;;;3.65;0.88;;;21.40;84.10;;;;;;5093835;28;20034;-69
2023/05/20 09:02:54;;;;;;;1.63;0.70;;;21.50;83.90;;;;;;5088118;28;20138;-70
2023/05/20 09:05:21;;;;;;;1.52;0.50;;;21.60;84.90;;;;;;5091396;28;20511;-71
2023/05/20 09:07:47;;;;;;;1.98;0.63;;;21.70;85.60;;;;;;5089075;28;20047;-69
2023/05/20 09:10:13;;;;;;;3.30;0.47;;;21.70;83.80;;;;;;5094001;28;20028;-71
2023/05/20 09:12:38;;;;;;;1.60;0.43;;;21.50;83.60;;;;;;5090899;28;20504;-72
2023/05/20 09:15:05;;;;;;;10.60;1.27;;;21.60;85.00;;;;;;5082950;28;20047;-69
2023/05/20 09:17:33;;;;;;;1.75;0.63;;;21.60;84.00;;;;;;5089919;27;20561;-69
2023/05/20 09:19:59;;;;;;;2.88;0.63;;;21.80;84.30;;;;;;5087789;28;21414;-70
2023/05/20 09:22:27;;;;;;;1.67;0.60;;;21.90;85.30;;;;;;5086225;28;20043;-71
2023/05/20 09:24:53;;;;;;;3.25;0.75;;;22.00;84.40;;;;;;5088581;28;20122;-71
2023/05/20 09:27:19;;;;;;;1.60;0.63;;;21.80;83.70;;;;;;5088261;28;20127;-71
2023/05/20 09:29:47;;;;;;;5.03;0.68;;;21.70;80.80;;;;;;5087903;28;20085;-70
2023/05/20 09:32:14;;;;;;;1.80;0.47;;;21.80;83.10;;;;;;5088887;28;20040;-70
2023/05/20 09:34:44;;;;;;;2.00;0.50;;;21.70;83.20;;;;;;5088014;28;20035;-70
2023/05/20 09:37:11;;;;;;;3.03;0.47;;;21.50;80.80;;;;;;5088784;28;20084;-70
2023/05/20 09:39:55;;;;;;;1.80;0.40;;;21.40;80.50;;;;;;5091677;28;20131;-71
2023/05/20 09:42:34;;;;;;;1.30;0.50;;;21.40;82.10;;;;;;5086598;28;20036;-71
2023/05/20 09:45:03;;;;;;;1.58;0.93;;;21.60;82.00;;;;;;5088607;27;20032;-69
2023/05/20 09:47:30;;;;;;;3.42;0.60;;;21.70;79.80;;;;;;5089602;28;20047;-70
2023/05/20 09:49:57;;;;;;;4.07;0.80;;;21.60;80.20;;;;;;5091503;28;20032;-69
2023/05/20 09:52:23;;;;;;;3.55;0.80;;;21.50;81.10;;;;;;5090954;28;20075;-72
2023/05/20 09:54:49;;;;;;;2.60;0.50;;;21.50;81.90;;;;;;5087916;28;20438;-70
2023/05/20 09:57:15;;;;;;;3.10;0.38;;;21.70;83.20;;;;;;5091700;28;20032;-70
2023/05/20 09:59:42;;;;;;;2.20;0.60;;;21.60;81.20;;;;;;5086852;28;20515;-70
2023/05/20 10:02:08;;;;;;;1.35;0.63;;;21.40;81.50;;;;;;5087480;28;20028;-69
2023/05/20 10:04:37;;;;;;;3.70;0.60;;;21.50;80.10;;;;;;5089254;28;20063;-70
2023/05/20 10:07:17;;;;;;;0.93;0.50;;;21.50;79.30;;;;;;5089192;28;20127;-70
2023/05/20 10:10:26;;;;;;;3.63;0.90;;;21.50;81.20;;;;;;5089412;27;20047;-69
2023/05/20 10:13:26;;;;;;;3.70;0.75;;;21.30;81.80;;;;;;5089422;28;20609;-70
2023/05/20 10:16:16;;;;;;;4.30;0.85;;;21.30;81.40;;;;;;5082968;28;20043;-70
2023/05/20 10:19:31;;;;;;;1.30;0.50;;;21.20;81.80;;;;;;5085549;28;20480;-71
2023/05/20 10:21:58;;;;;;;2.08;0.47;;;21.30;80.60;;;;;;5051669;28;20036;-69
2023/05/20 10:24:32;;;;;;;1.23;0.40;;;21.40;81.10;;;;;;5092717;28;20055;-70
2023/05/20 10:27:00;;;;;;;2.47;0.77;;;21.40;80.40;;;;;;5090695;28;20028;-70
2023/05/20 10:29:26;;;;;;;1.38;0.50;;;21.60;81.30;;;;;;5088594;28;20088;-69
2023/05/20 10:31:52;;;;;;;1.40;0.55;;;21.80;81.20;;;;;;5085573;28;20075;-70
2023/05/20 10:34:20;;;;;;;6.32;0.80;;;21.90;80.30;;;;;;5087897;28;20039;-71
2023/05/20 10:36:54;;;;;;;3.15;0.60;;;21.90;79.90;;;;;;5084710;28;20052;-70
2023/05/20 10:39:28;;;;;;;2.03;0.70;;;22.00;81.10;;;;;;5086454;28;20051;-70
2023/05/20 10:42:14;;;;;;;2.65;1.08;;;22.00;80.50;;;;;;5091943;28;20395;-69
2023/05/20 10:44:44;;;;;;;3.33;0.63;;;22.00;80.00;;;;;;5089089;28;20113;-69
2023/05/20 10:47:10;;;;;;;1.70;0.60;;;21.90;81.00;;;;;;5085340;28;20028;-69
2023/05/20 10:49:42;;;;;;;5.63;0.85;;;21.90;80.30;;;;;;5086700;28;20496;-70
2023/05/20 10:52:09;;;;;;;2.70;1.02;;;21.80;80.70;;;;;;5092902;28;20047;-68
2023/05/20 10:54:36;;;;;;;6.95;1.05;;;21.90;80.60;;;;;;5089239;28;20081;-69
2023/05/20 10:57:08;;;;;;;3.28;0.55;;;21.90;81.50;;;;;;5087958;28;20575;-69
2023/05/20 10:59:35;;;;;;;2.05;1.10;;;21.70;81.60;;;;;;5087830;28;20033;-71
2023/05/20 11:02:01;;;;;;;1.92;0.98;;;21.70;81.00;;;;;;5088375;28;20028;-70
2023/05/20 11:04:28;;;;;;;2.15;0.90;;;21.70;80.90;;;;;;5088753;28;20040;-72
2023/05/20 11:06:54;;;;;;;1.80;0.30;;;21.80;81.20;;;;;;5087501;28;20031;-70
2023/05/20 11:09:19;;;;;;;3.38;0.30;;;21.90;80.10;;;;;;5087468;28;20078;-69
2023/05/20 11:11:46;;;;;;;1.02;0.40;;;22.00;80.20;;;;;;5088031;28;20160;-69
2023/05/20 11:14:15;;;;;;;4.03;0.65;;;22.30;82.10;;;;;;5086426;28;20035;-69
2023/05/20 11:16:41;;;;;;;1.50;0.55;;;22.60;79.50;;;;;;5089402;28;20432;-72
2023/05/20 11:19:08;;;;;;;1.13;0.60;;;22.60;79.40;;;;;;5086700;28;20796;-72
2023/05/20 11:21:43;;;;;;;2.60;0.55;;;22.30;78.60;;;;;;5086299;28;20085;-69
2023/05/20 11:24:08;;;;;;;1.55;0.40;;;22.20;79.70;;;;;;5089878;28;20484;-70
2023/05/20 11:26:34;;;;;;;2.30;0.40;;;22.20;79.40;;;;;;5091410;28;20048;-71
2023/05/20 11:29:00;;;;;;;1.98;0.57;;;22.20;76.70;;;;;;5084510;28;20365;-71
2023/05/20 11:31:26;;;;;;;2.45;0.50;;;22.10;77.00;;;;;;5087544;28;20040;-69
2023/05/20 11:33:52;;;;;;;5.15;0.40;;;22.20;77.20;;;;;;5087282;28;20116;-72
2023/05/20 11:36:18;;;;;;;1.35;0.45;;;22.10;76.40;;;;;;5086649;28;20563;-70
2023/05/20 11:38:45;;;;;;;0.85;0.55;;;22.00;76.80;;;;;;5085066;28;20032;-70
2023/05/20 11:41:11;;;;;;;1.23;0.63;;;21.70;77.20;;;;;;5080325;28;20024;-70
2023/05/20 11:43:37;;;;;;;2.13;0.30;;;21.60;77.40;;;;;;5082886;28;20047;-69
2023/05/20 11:46:04;;;;;;;4.03;0.47;;;21.50;79.60;;;;;;5086697;28;20634;-70
2023/05/20 11:48:29;;;;;;;4.18;0.65;;;21.50;79.50;;;;;;5092790;28;20039;-70
2023/05/20 11:50:56;;;;;;;3.78;0.50;;;21.50;77.40;;;;;;5089601;28;20030;-71
2023/05/20 11:53:23;;;;;;;1.77;0.40;;;21.60;78.80;;;;;;5086837;28;20038;-70
2023/05/20 11:55:49;;;;;;;2.88;0.60;;;21.60;79.70;;;;;;5084582;28;20036;-72
2023/05/20 11:58:20;;;;;;;3.90;0.70;;;21.80;81.00;;;;;;5088097;28;20032;-73
2023/05/20 12:00:45;;;;;;;2.05;0.43;;;21.80;77.80;;;;;;5089339;28;20047;-70
2023/05/20 12:03:15;;;;;;;1.85;0.52;;;21.90;77.90;;;;;;5087004;28;20036;-71
2023/05/20 12:05:43;;;;;;;3.03;0.73;;;21.90;78.10;;;;;;5091543;28;20445;-70
2023/05/20 12:08:09;;;;;;;4.45;0.40;;;22.00;78.00;;;;;;5086580;28;20695;-72
2023/05/20 12:10:38;;;;;;;2.53;0.47;;;21.90;78.90;;;;;;5083376;28;20032;-71
2023/05/20 12:13:07;;;;;;;2.25;0.50;;;21.90;77.90;;;;;;5093398;28;20036;-70
2023/05/20 12:15:33;;;;;;;4.28;0.55;;;21.70;78.10;;;;;;5089897;28;20108;-71
2023/05/20 12:18:00;;;;;;;2.58;0.80;;;21.70;76.70;;;;;;5085792;28;20065;-70
2023/05/20 12:20:25;;;;;;;1.88;0.45;;;21.60;78.10;;;;;;5082294;28;20122;-71
2023/05/20 12:22:51;;;;;;;2.28;0.70;;;21.60;78.20;;;;;;5090910;28;20161;-70
2023/05/20 12:25:20;;;;;;;1.45;0.73;;;21.50;79.80;;;;;;5092261;28;20040;-70
2023/05/20 12:27:47;;;;;;;1.02;0.38;;;21.70;80.60;;;;;;5091310;28;20123;-70
2023/05/20 12:30:21;;;;;;;2.78;0.77;;;21.90;80.50;;;;;;5090276;28;20043;-72
2023/05/20 12:32:49;;;;;;;1.13;0.40;;;21.70;79.20;;;;;;5086955;28;20415;-70
2023/05/20 12:35:25;;;;;;;2.53;0.85;;;21.70;79.70;;;;;;5090122;28;20598;-70
2023/05/20 12:37:51;;;;;;;5.05;0.77;;;21.80;78.80;;;;;;5087503;28;20535;-70
2023/05/20 12:40:17;;;;;;;2.05;0.30;;;21.80;79.40;;;;;;5093735;27;20115;-71
2023/05/20 12:42:43;;;;;;;1.50;0.55;;;21.70;78.80;;;;;;5092452;28;21139;-71
2023/05/20 12:45:09;;;;;;;3.95;0.57;;;21.60;79.20;;;;;;5093602;28;20032;-73
2023/05/20 12:47:35;;;;;;;1.50;0.63;;;21.60;78.70;;;;;;5097362;28;20036;-71